Chopin — 5BEJ4 — position and weather

sailwx.info

Track history (hours):
 
Tides and Currents Weather Stations Pressure Air Temp Water Temp Dewpoint Dewpoint Depression Visibility Wind Speed Wind Dir Waves Ship Positions

Chopin

Last reported at 2017-Dec-10 22:23 UTC. Time now 2017-Dec-15 13:42 UTC.
Position S 05°53' E 011°27'.

Length 240 m; draft 10.9 m.

Type: Ship (hazmat cat C). MMSI: 212193000.

Date/timePositionNaut miles runAvg speedWind from/ knotsBaromVisibWave heightAir tempDewpointWater temp
2017-Dec-10 22:23S 05°53' E 011°27'615.4
2017-Dec-10 21:59S 05°49' E 011°23'816.0
2017-Dec-10 21:30S 05°43' E 011°17'815.9
2017-Dec-10 21:00S 05°38' E 011°12'815.7
2017-Dec-10 20:31S 05°30' E 011°10'816.0
2017-Dec-10 20:00S 05°23' E 011°05'715.0
2017-Dec-10 19:30S 05°16' E 011°06'815.8
2017-Dec-10 19:00S 05°10' E 011°11'714.7
2017-Dec-10 18:30S 05°06' E 011°17'713.7
2017-Dec-10 18:00S 05°04' E 011°24'30 1.9
2017-Dec-10 02:09S 04°46' E 011°48'  
Track history (hours):
 
Tides and Currents Weather Stations Pressure Air Temp Water Temp Dewpoint Dewpoint Depression Visibility Wind Speed Wind Dir Waves Ship Positions

Chopin

Last reported at 2017-Dec-10 22:23 UTC. Time now 2017-Dec-15 13:42 UTC.
Position S 05°53' E 011°27'.

Length 240 m; draft 10.9 m.

Type: Ship (hazmat cat C). MMSI: 212193000.

Date/timePositionNaut miles runAvg speedWind from/ knotsBaromVisibWave heightAir tempDewpointWater temp
2017-Dec-10 22:23S 05°53' E 011°27'615.4
2017-Dec-10 21:59S 05°49' E 011°23'816.0
2017-Dec-10 21:30S 05°43' E 011°17'815.9
2017-Dec-10 21:00S 05°38' E 011°12'815.7
2017-Dec-10 20:31S 05°30' E 011°10'816.0
2017-Dec-10 20:00S 05°23' E 011°05'715.0
2017-Dec-10 19:30S 05°16' E 011°06'815.8
2017-Dec-10 19:00S 05°10' E 011°11'714.7
2017-Dec-10 18:30S 05°06' E 011°17'713.7
2017-Dec-10 18:00S 05°04' E 011°24'30 1.9
2017-Dec-10 02:09S 04°46' E 011°48'  

Dump ship's entire track history